createdAt,value
2024-05-09T00:00:35.510Z,5.40
2024-05-09T00:03:07.310Z,5.18
2024-05-09T00:05:34.378Z,5.18
2024-05-09T00:08:01.351Z,5.82
2024-05-09T00:10:35.384Z,5.35
2024-05-09T00:13:04.696Z,5.60
2024-05-09T00:15:31.551Z,5.72
2024-05-09T00:17:58.331Z,5.60
2024-05-09T00:20:33.089Z,6.10
2024-05-09T00:23:06.788Z,5.70
2024-05-09T00:25:33.616Z,6.20
2024-05-09T00:28:00.162Z,5.50
2024-05-09T00:30:33.584Z,5.40
2024-05-09T00:33:03.643Z,5.35
2024-05-09T00:35:30.886Z,5.15
2024-05-09T00:37:57.561Z,5.78
2024-05-09T00:40:35.060Z,5.75
2024-05-09T00:43:06.572Z,5.30
2024-05-09T00:45:34.332Z,5.10
2024-05-09T00:48:07.115Z,6.00
2024-05-09T00:50:38.020Z,5.68
2024-05-09T00:53:07.748Z,5.60
2024-05-09T00:55:36.481Z,6.18
2024-05-09T00:58:05.154Z,5.80
2024-05-09T01:00:38.405Z,6.00
2024-05-09T01:03:07.862Z,6.78
2024-05-09T01:05:35.391Z,6.70
2024-05-09T01:08:02.716Z,5.43
2024-05-09T01:13:04.064Z,6.00
2024-05-09T01:15:30.839Z,6.43
2024-05-09T01:17:58.260Z,5.80
2024-05-09T01:20:36.532Z,6.53
2024-05-09T01:23:09.737Z,6.47
2024-05-09T01:25:36.804Z,6.18
2024-05-09T01:28:03.440Z,6.10
2024-05-09T01:30:34.818Z,6.47
2024-05-09T01:33:04.471Z,6.65
2024-05-09T01:35:31.508Z,6.22
2024-05-09T01:37:58.101Z,6.20
2024-05-09T01:40:33.578Z,6.28
2024-05-09T01:43:04.697Z,6.30
2024-05-09T01:45:34.164Z,5.70
2024-05-09T01:48:01.136Z,6.53
2024-05-09T01:50:37.543Z,6.25
2024-05-09T01:53:09.039Z,6.18
2024-05-09T01:55:35.749Z,6.28
2024-05-09T01:58:02.294Z,6.22
2024-05-09T02:00:37.339Z,5.65
2024-05-09T02:03:09.684Z,6.00
2024-05-09T02:05:36.851Z,6.10
2024-05-09T02:08:04.368Z,5.28
2024-05-09T02:10:32.976Z,5.97
2024-05-09T02:13:00.030Z,6.15
2024-05-09T02:15:26.591Z,6.65
2024-05-09T02:17:53.415Z,7.35
2024-05-09T02:20:30.041Z,6.72
2024-05-09T02:23:03.627Z,5.55
2024-05-09T02:25:30.520Z,5.93
2024-05-09T02:27:57.195Z,5.40
2024-05-09T02:30:31.010Z,5.82
2024-05-09T02:33:05.832Z,5.78
2024-05-09T02:35:32.552Z,6.22
2024-05-09T02:37:59.191Z,5.65
2024-05-09T02:40:33.634Z,5.70
2024-05-09T02:43:04.196Z,5.43
2024-05-09T02:45:30.733Z,6.22
2024-05-09T02:47:57.670Z,5.75
2024-05-09T02:50:33.114Z,5.85
2024-05-09T02:53:04.454Z,6.07
2024-05-09T02:55:31.243Z,6.18
2024-05-09T02:57:57.859Z,5.93
2024-05-09T03:00:33.654Z,6.07
2024-05-09T03:03:05.675Z,6.00
2024-05-09T03:05:32.564Z,6.50
2024-05-09T03:07:59.159Z,5.88
2024-05-09T03:10:28.820Z,5.95
2024-05-09T03:13:01.709Z,6.05
2024-05-09T03:15:32.147Z,5.45
2024-05-09T03:18:00.091Z,5.80
2024-05-09T03:20:32.991Z,5.10
2024-05-09T03:23:02.208Z,5.72
2024-05-09T03:25:28.836Z,5.82
2024-05-09T03:27:55.371Z,5.88
2024-05-09T03:30:31.077Z,5.93
2024-05-09T03:33:19.987Z,5.20
2024-05-09T03:35:48.054Z,5.63
2024-05-09T03:38:15.093Z,5.60
2024-05-09T03:40:46.387Z,5.40
2024-05-09T03:43:13.923Z,5.63
2024-05-09T03:45:43.918Z,5.47
2024-05-09T03:48:10.758Z,5.07
2024-05-09T03:50:38.031Z,5.93
2024-05-09T03:53:05.378Z,5.25
2024-05-09T03:55:32.115Z,5.18
2024-05-09T03:57:58.838Z,5.97
2024-05-09T04:00:31.787Z,5.70
2024-05-09T04:03:06.237Z,5.38
2024-05-09T04:05:34.979Z,5.53
2024-05-09T04:10:33.230Z,5.43
2024-05-09T04:13:04.560Z,4.80
2024-05-09T04:15:31.588Z,4.90
2024-05-09T04:17:58.461Z,5.63
2024-05-09T04:20:35.855Z,5.90
2024-05-09T04:23:06.967Z,5.47
2024-05-09T04:25:34.223Z,4.88
2024-05-09T04:28:00.825Z,5.13
2024-05-09T04:30:36.362Z,5.05
2024-05-09T04:33:07.976Z,5.50
2024-05-09T04:35:36.077Z,5.25
2024-05-09T04:38:02.811Z,5.45
2024-05-09T04:40:34.099Z,5.13
2024-05-09T04:43:03.718Z,4.65
2024-05-09T04:45:30.433Z,5.72
2024-05-09T04:47:57.241Z,5.63
2024-05-09T04:50:33.225Z,5.80
2024-05-09T04:53:04.045Z,5.60
2024-05-09T04:55:30.719Z,5.68
2024-05-09T04:57:57.245Z,5.65
2024-05-09T05:00:32.462Z,5.57
2024-05-09T05:03:06.894Z,5.18
2024-05-09T05:05:34.871Z,5.90
2024-05-09T05:08:01.560Z,5.90
2024-05-09T05:10:33.992Z,7.30
2024-05-09T05:13:25.101Z,6.57
2024-05-09T05:15:55.768Z,6.70
2024-05-09T05:18:23.836Z,7.75
2024-05-09T05:23:20.167Z,7.53
2024-05-09T05:25:48.754Z,7.32
2024-05-09T05:28:16.670Z,8.32
2024-05-09T05:30:43.461Z,8.70
2024-05-09T05:33:12.064Z,7.88
2024-05-09T05:35:39.559Z,7.88
2024-05-09T05:38:07.500Z,8.05
2024-05-09T05:40:37.255Z,8.63
2024-05-09T05:43:10.303Z,8.70
2024-05-09T05:45:37.409Z,9.10
2024-05-09T05:48:05.703Z,8.55
2024-05-09T05:50:36.372Z,9.68
2024-05-09T05:53:08.820Z,9.55
2024-05-09T05:55:36.689Z,10.07
2024-05-09T05:58:03.412Z,9.60
2024-05-09T06:00:37.504Z,9.75
2024-05-09T06:03:06.400Z,10.55
2024-05-09T06:05:33.574Z,9.32
2024-05-09T06:08:00.419Z,9.73
2024-05-09T06:10:36.992Z,10.07
2024-05-09T06:13:06.310Z,10.32
2024-05-09T06:15:32.828Z,10.65
2024-05-09T06:17:59.572Z,9.77
2024-05-09T06:20:34.819Z,11.82
2024-05-09T06:23:06.224Z,11.10
2024-05-09T06:25:33.690Z,12.27
2024-05-09T06:28:01.023Z,11.55
2024-05-09T06:30:36.651Z,12.80
2024-05-09T06:33:07.303Z,11.63
2024-05-09T06:35:34.411Z,12.25
2024-05-09T06:38:01.667Z,12.75
2024-05-09T06:40:36.442Z,11.20
2024-05-09T06:43:10.450Z,10.88
2024-05-09T06:45:37.166Z,11.40
2024-05-09T06:48:04.125Z,10.90
2024-05-09T06:53:04.903Z,10.02
2024-05-09T06:55:31.515Z,9.15
2024-05-09T06:57:58.000Z,9.10
2024-05-09T07:00:30.882Z,9.73
2024-05-09T07:03:14.982Z,9.77
2024-05-09T07:05:43.881Z,8.35
2024-05-09T07:08:10.553Z,9.85
2024-05-09T07:10:37.577Z,9.13
2024-05-09T07:13:11.965Z,9.10
2024-05-09T07:15:39.402Z,8.38
2024-05-09T07:18:13.854Z,8.50
2024-05-09T07:20:41.254Z,9.60
2024-05-09T07:25:39.383Z,8.38
2024-05-09T07:28:09.797Z,8.13
2024-05-09T07:30:36.274Z,8.50
2024-05-09T07:33:03.673Z,8.40
2024-05-09T07:35:31.187Z,8.90
2024-05-09T07:37:58.123Z,9.02
2024-05-09T07:40:32.791Z,8.57
2024-05-09T07:43:12.979Z,7.65
2024-05-09T07:45:49.602Z,8.15
2024-05-09T07:53:38.585Z,8.70
2024-05-09T07:56:07.362Z,8.85
2024-05-09T07:58:34.355Z,7.18
2024-05-09T08:01:02.632Z,7.65
2024-05-09T08:03:29.591Z,8.48
2024-05-09T08:08:23.122Z,5.63
2024-05-09T08:10:50.648Z,7.80
2024-05-09T08:13:17.603Z,6.55
2024-05-09T08:15:44.240Z,6.97
2024-05-09T08:18:11.620Z,8.00
2024-05-09T08:20:38.996Z,7.63
2024-05-09T08:23:05.942Z,7.13
2024-05-09T08:27:58.996Z,5.88
2024-05-09T08:30:32.791Z,6.13
2024-05-09T08:33:04.190Z,6.25
2024-05-09T08:35:30.843Z,7.25
2024-05-09T08:37:57.529Z,7.03
2024-05-09T08:40:31.055Z,7.63
2024-05-09T08:43:05.268Z,6.20
2024-05-09T08:45:33.478Z,6.10
2024-05-09T08:48:05.766Z,7.07
2024-05-09T08:50:38.808Z,7.70
2024-05-09T08:53:07.156Z,8.70
2024-05-09T08:55:33.924Z,8.32
2024-05-09T08:58:03.352Z,7.43
2024-05-09T09:00:36.812Z,7.90
2024-05-09T09:03:06.746Z,7.05
2024-05-09T09:05:37.883Z,7.32
2024-05-09T09:08:07.436Z,6.85
2024-05-09T09:10:34.652Z,6.80
2024-05-09T09:13:04.205Z,7.38
2024-05-09T09:15:31.272Z,6.70
2024-05-09T09:20:34.133Z,6.30
2024-05-09T09:23:03.400Z,6.15
2024-05-09T09:25:30.053Z,6.88
2024-05-09T09:27:58.640Z,7.00
2024-05-09T09:30:35.030Z,6.03
2024-05-09T09:35:31.185Z,6.85
2024-05-09T09:38:01.985Z,7.45
2024-05-09T09:40:37.107Z,6.88
2024-05-09T09:43:20.106Z,7.32
2024-05-09T09:45:53.442Z,7.85
2024-05-09T09:48:22.009Z,8.13
2024-05-09T09:50:51.497Z,7.68
2024-05-09T09:53:19.188Z,7.43
2024-05-09T09:55:46.932Z,7.07
2024-05-09T09:58:16.251Z,7.28
2024-05-09T10:00:43.170Z,7.70
2024-05-09T10:03:09.932Z,7.10
2024-05-09T10:05:37.438Z,7.80
2024-05-09T10:08:06.875Z,6.53
2024-05-09T10:10:35.814Z,7.45
2024-05-09T10:13:05.716Z,8.13
2024-05-09T10:15:46.376Z,6.75
2024-05-09T10:18:13.354Z,6.78
2024-05-09T10:20:44.295Z,6.78
2024-05-09T10:23:37.093Z,6.32
2024-05-09T10:26:04.944Z,5.40
2024-05-09T10:28:35.008Z,5.15
2024-05-09T10:31:09.441Z,5.45
2024-05-09T10:33:37.614Z,5.40
2024-05-09T10:36:10.683Z,4.97
2024-05-09T10:41:04.753Z,5.07
2024-05-09T10:43:31.386Z,6.05
2024-05-09T10:45:57.949Z,4.93
2024-05-09T10:48:24.844Z,5.90
2024-05-09T10:50:51.631Z,4.97
2024-05-09T10:53:19.183Z,5.57
2024-05-09T10:55:58.915Z,5.10
2024-05-09T10:58:26.157Z,4.80
2024-05-09T11:00:55.776Z,4.95
2024-05-09T11:03:26.094Z,4.80
2024-05-09T11:05:53.321Z,3.88
2024-05-09T11:08:24.415Z,5.00
2024-05-09T11:10:52.515Z,5.93
2024-05-09T11:13:32.768Z,5.00
2024-05-09T11:16:00.587Z,5.93
2024-05-09T11:18:30.875Z,5.85
2024-05-09T11:21:00.484Z,6.13
2024-05-09T11:23:30.033Z,5.85
2024-05-09T11:25:58.319Z,5.55
2024-05-09T11:28:26.852Z,5.05
2024-05-09T11:31:06.475Z,5.45
2024-05-09T11:33:36.903Z,4.68
2024-05-09T11:36:04.206Z,5.70
2024-05-09T11:38:31.213Z,6.00
2024-05-09T11:40:57.733Z,5.72
2024-05-09T11:43:24.421Z,5.97
2024-05-09T11:45:51.191Z,5.93
2024-05-09T11:48:17.824Z,6.15
2024-05-09T11:50:44.442Z,6.70
2024-05-09T11:53:12.310Z,6.60
2024-05-09T11:55:38.810Z,5.10
2024-05-09T11:58:05.859Z,5.80
2024-05-09T12:00:36.907Z,5.88
2024-05-09T12:03:05.659Z,6.43
2024-05-09T12:05:34.011Z,7.57
2024-05-09T12:08:01.407Z,6.45
2024-05-09T12:10:33.362Z,6.25
2024-05-09T12:13:03.149Z,6.40
2024-05-09T12:15:30.795Z,7.68
2024-05-09T12:17:59.008Z,7.43
2024-05-09T12:20:35.416Z,7.82
2024-05-09T12:23:05.420Z,7.00
2024-05-09T12:25:32.072Z,6.57
2024-05-09T12:27:58.727Z,6.63
2024-05-09T12:30:34.441Z,8.20
2024-05-09T12:33:05.001Z,8.05
2024-05-09T12:35:31.835Z,7.47
2024-05-09T12:37:58.456Z,7.38
2024-05-09T12:40:34.233Z,7.85
2024-05-09T12:45:30.806Z,7.53
2024-05-09T12:47:57.493Z,8.00
2024-05-09T12:50:31.079Z,7.47
2024-05-09T12:52:59.558Z,7.78
2024-05-09T12:55:26.937Z,7.57
2024-05-09T12:57:53.824Z,7.72
2024-05-09T13:02:58.276Z,7.38
2024-05-09T13:05:25.019Z,8.25
2024-05-09T13:07:51.753Z,7.90
2024-05-09T13:10:28.661Z,8.25
2024-05-09T13:12:59.217Z,7.28
2024-05-09T13:15:25.885Z,8.75
2024-05-09T13:17:52.623Z,7.85
2024-05-09T13:23:01.627Z,7.25
2024-05-09T13:25:28.205Z,7.97
2024-05-09T13:27:55.307Z,8.77
2024-05-09T13:30:29.487Z,7.97
2024-05-09T13:33:05.875Z,8.55
2024-05-09T13:35:34.314Z,8.00
2024-05-09T13:38:02.012Z,7.68
2024-05-09T13:40:33.631Z,7.20
2024-05-09T13:43:02.889Z,7.72
2024-05-09T13:45:29.604Z,8.10
2024-05-09T13:47:56.617Z,8.18
2024-05-09T13:50:31.334Z,8.38
2024-05-09T13:53:02.141Z,8.13
2024-05-09T13:55:28.858Z,8.25
2024-05-09T13:57:55.811Z,8.02
2024-05-09T14:00:32.260Z,8.50
2024-05-09T14:03:09.460Z,8.02
2024-05-09T14:05:36.359Z,7.88
2024-05-09T14:08:06.243Z,8.75
2024-05-09T14:10:33.034Z,7.88
2024-05-09T14:15:26.867Z,8.38
2024-05-09T14:17:54.223Z,7.93
2024-05-09T14:20:30.291Z,6.47
2024-05-09T14:23:02.123Z,7.78
2024-05-09T14:25:30.024Z,7.55
2024-05-09T14:27:59.962Z,8.02
2024-05-09T14:30:34.769Z,8.15
2024-05-09T14:33:05.077Z,8.57
2024-05-09T14:35:32.057Z,7.90
2024-05-09T14:37:58.919Z,7.00
2024-05-09T14:40:36.922Z,8.18
2024-05-09T14:43:08.749Z,9.30
2024-05-09T14:45:35.639Z,7.63
2024-05-09T14:50:35.827Z,7.63
2024-05-09T14:53:06.410Z,8.70
2024-05-09T14:55:37.285Z,8.23
2024-05-09T14:58:09.175Z,8.55
2024-05-09T15:00:41.514Z,8.20
2024-05-09T15:03:11.368Z,8.65
2024-05-09T15:08:08.474Z,8.13
2024-05-09T15:10:36.721Z,8.90
2024-05-09T15:13:05.211Z,9.93
2024-05-09T15:15:32.362Z,9.20
2024-05-09T15:17:59.615Z,9.52
2024-05-09T15:20:33.473Z,10.23
2024-05-09T15:23:03.246Z,10.30
2024-05-09T15:25:30.187Z,10.90
2024-05-09T15:27:57.049Z,11.25
2024-05-09T15:30:31.290Z,10.80
2024-05-09T15:33:00.906Z,12.38
2024-05-09T15:35:27.878Z,13.13
2024-05-09T15:37:54.915Z,13.70
2024-05-09T15:40:30.921Z,13.13
2024-05-09T15:43:05.089Z,12.48
2024-05-09T15:45:32.040Z,11.98
2024-05-09T15:47:59.100Z,11.70
2024-05-09T15:50:35.550Z,13.45
2024-05-09T15:53:06.683Z,13.23
2024-05-09T15:55:34.318Z,13.77
2024-05-09T15:58:02.319Z,12.93
2024-05-09T16:00:37.184Z,12.45
2024-05-09T16:03:07.709Z,12.93
2024-05-09T16:05:34.652Z,11.82
2024-05-09T16:08:01.454Z,10.82
2024-05-09T16:10:32.690Z,12.82
2024-05-09T16:13:00.962Z,12.68
2024-05-09T16:15:27.639Z,13.70
2024-05-09T16:17:54.331Z,12.32
2024-05-09T16:20:33.756Z,13.48
2024-05-09T16:23:05.832Z,13.45
2024-05-09T16:25:32.684Z,12.85
2024-05-09T16:27:59.584Z,13.80
2024-05-09T16:30:33.502Z,13.13
2024-05-09T16:33:03.039Z,14.23
2024-05-09T16:35:30.118Z,13.93
2024-05-09T16:37:57.252Z,13.52
2024-05-09T16:40:34.295Z,13.75
2024-05-09T16:43:06.262Z,13.48
2024-05-09T16:45:33.343Z,14.07
2024-05-09T16:48:00.711Z,13.32
2024-05-09T16:50:32.771Z,13.27
2024-05-09T16:53:01.796Z,14.35
2024-05-09T16:55:28.505Z,14.63
2024-05-09T16:57:55.974Z,13.93
2024-05-09T17:00:34.792Z,14.10
2024-05-09T17:03:07.781Z,13.38
2024-05-09T17:05:35.393Z,14.13
2024-05-09T17:08:02.602Z,13.93
2024-05-09T17:10:32.694Z,14.55
2024-05-09T17:13:01.862Z,14.27
2024-05-09T17:15:28.650Z,14.20
2024-05-09T17:17:55.898Z,14.55
2024-05-09T17:20:29.682Z,13.32
2024-05-09T17:23:01.638Z,14.77
2024-05-09T17:25:28.346Z,14.48
2024-05-09T17:27:55.233Z,13.82
2024-05-09T17:33:01.661Z,13.18
2024-05-09T17:35:28.480Z,13.82
2024-05-09T17:37:55.120Z,13.60
2024-05-09T17:40:30.719Z,12.73
2024-05-09T17:43:01.061Z,12.85
2024-05-09T17:45:27.621Z,12.85
2024-05-09T17:47:54.397Z,13.43
2024-05-09T17:53:00.398Z,12.65
2024-05-09T17:55:27.049Z,13.02
2024-05-09T17:57:53.698Z,12.50
2024-05-09T18:00:29.015Z,12.90
2024-05-09T18:03:03.723Z,12.30
2024-05-09T18:07:57.341Z,12.30
2024-05-09T18:13:02.358Z,13.20
2024-05-09T18:15:29.007Z,13.65
2024-05-09T18:17:55.710Z,14.25
2024-05-09T18:20:32.618Z,13.95
2024-05-09T18:25:33.773Z,14.07
2024-05-09T18:28:02.413Z,12.98
2024-05-09T18:30:34.440Z,12.05
2024-05-09T18:33:03.111Z,12.73
2024-05-09T18:37:56.325Z,12.20
2024-05-09T18:40:31.257Z,12.23
2024-05-09T18:43:01.914Z,11.90
2024-05-09T18:45:29.039Z,11.68
2024-05-09T18:47:56.758Z,12.50
2024-05-09T18:50:32.000Z,12.93
2024-05-09T18:53:03.431Z,12.90
2024-05-09T18:55:29.948Z,12.50
2024-05-09T18:57:56.807Z,13.13
2024-05-09T19:00:33.210Z,13.18
2024-05-09T19:03:05.739Z,12.68
2024-05-09T19:05:35.320Z,13.30
2024-05-09T19:08:02.786Z,13.60
2024-05-09T19:10:34.229Z,13.82
2024-05-09T19:13:06.540Z,13.18
2024-05-09T19:15:37.053Z,13.18
2024-05-09T19:18:04.073Z,13.70
2024-05-09T19:20:34.504Z,13.25
2024-05-09T19:23:02.658Z,13.48
2024-05-09T19:25:29.306Z,13.13
2024-05-09T19:27:55.996Z,14.95
2024-05-09T19:30:30.371Z,12.95
2024-05-09T19:33:05.156Z,14.75
2024-05-09T19:35:32.292Z,14.82
2024-05-09T19:40:31.127Z,13.77
2024-05-09T19:43:00.018Z,15.13
2024-05-09T19:45:26.586Z,16.00
2024-05-09T19:47:53.346Z,16.05
2024-05-09T19:50:26.896Z,15.18
2024-05-09T19:53:02.309Z,16.25
2024-05-09T19:55:28.870Z,17.05
2024-05-09T19:57:59.887Z,17.23
2024-05-09T20:00:32.903Z,16.75
2024-05-09T20:03:02.787Z,17.75
2024-05-09T20:07:57.873Z,17.30
2024-05-09T20:10:29.840Z,17.27
2024-05-09T20:12:59.345Z,18.27
2024-05-09T20:15:25.919Z,18.27
2024-05-09T20:17:52.534Z,18.70
2024-05-09T20:20:28.352Z,18.17
2024-05-09T20:23:02.874Z,16.83
2024-05-09T20:25:29.518Z,18.35
2024-05-09T20:27:56.139Z,17.83
2024-05-09T20:30:29.005Z,18.33
2024-05-09T20:32:59.699Z,17.90
2024-05-09T20:35:26.639Z,18.48
2024-05-09T20:37:53.227Z,18.05
2024-05-09T20:40:28.260Z,17.88
2024-05-09T20:42:59.205Z,18.38
2024-05-09T20:45:25.936Z,17.67
2024-05-09T20:47:52.687Z,18.77
2024-05-09T20:50:28.128Z,18.13
2024-05-09T20:53:02.800Z,17.98
2024-05-09T20:55:29.839Z,17.70
2024-05-09T20:57:56.840Z,17.92
2024-05-09T21:00:30.097Z,17.95
2024-05-09T21:03:05.140Z,17.63
2024-05-09T21:05:32.199Z,19.60
2024-05-09T21:07:58.959Z,18.48
2024-05-09T21:10:27.259Z,19.52
2024-05-09T21:12:56.373Z,18.70
2024-05-09T21:15:23.428Z,19.38
2024-05-09T21:20:20.664Z,17.20
2024-05-09T21:22:50.855Z,19.90
2024-05-09T21:25:17.466Z,19.05
2024-05-09T21:27:44.147Z,20.30
2024-05-09T21:30:18.404Z,20.10
2024-05-09T21:32:50.220Z,19.55
2024-05-09T21:35:19.743Z,20.95
2024-05-09T21:37:46.299Z,21.08
2024-05-09T21:40:17.031Z,21.40
2024-05-09T21:42:50.725Z,20.52
2024-05-09T21:45:17.246Z,20.48
2024-05-09T21:47:43.954Z,19.77
2024-05-09T21:50:18.661Z,20.00
2024-05-09T21:52:49.814Z,20.30
2024-05-09T21:55:16.478Z,19.60
2024-05-09T21:57:43.124Z,21.20
2024-05-09T22:00:24.855Z,20.33
2024-05-09T22:02:59.009Z,20.73
2024-05-09T22:05:25.562Z,20.15
2024-05-09T22:07:52.137Z,20.35
2024-05-09T22:10:25.697Z,20.40
2024-05-09T22:12:56.675Z,20.20
2024-05-09T22:15:23.197Z,20.05
2024-05-09T22:17:49.862Z,20.77
2024-05-09T22:20:22.287Z,20.45
2024-05-09T22:22:55.457Z,21.73
2024-05-09T22:25:26.610Z,21.45
2024-05-09T22:27:54.503Z,22.15
2024-05-09T22:30:24.219Z,20.27
2024-05-09T22:32:58.429Z,21.63
2024-05-09T22:35:25.063Z,22.08
2024-05-09T22:37:51.665Z,20.42
2024-05-09T22:40:28.262Z,21.23
2024-05-09T22:43:04.644Z,19.90
2024-05-09T22:45:31.244Z,21.95
2024-05-09T22:47:57.997Z,21.85
2024-05-09T22:50:27.022Z,20.63
2024-05-09T22:52:58.844Z,22.08
2024-05-09T22:55:25.400Z,20.30
2024-05-09T22:57:51.973Z,21.77
2024-05-09T23:00:21.797Z,20.77
2024-05-09T23:02:52.865Z,21.35
2024-05-09T23:05:19.636Z,21.35
2024-05-09T23:07:46.256Z,22.15
2024-05-09T23:10:17.372Z,22.00
2024-05-09T23:12:51.336Z,21.63
2024-05-09T23:15:17.878Z,20.83
2024-05-09T23:17:44.684Z,20.02
2024-05-09T23:20:11.865Z,20.77
2024-05-09T23:22:40.970Z,21.58
2024-05-09T23:25:07.594Z,21.90
2024-05-09T23:27:34.296Z,21.63
2024-05-09T23:30:00.834Z,21.65
2024-05-09T23:32:27.608Z,22.35
2024-05-09T23:34:54.307Z,21.13
2024-05-09T23:37:20.937Z,21.35
2024-05-09T23:39:47.605Z,21.00
2024-05-09T23:42:14.189Z,22.10
2024-05-09T23:44:40.739Z,21.58
2024-05-09T23:47:10.173Z,21.70
2024-05-09T23:49:37.362Z,20.50
2024-05-09T23:52:04.351Z,20.52
2024-05-09T23:56:57.352Z,20.80
2024-05-09T23:59:26.601Z,21.38
